Time;durP1;ratioP1;P1;durP2;ratioP2;P2;SDS_P1;SDS_P2;PMS_P1;PMS_P2;Temp;Humidity;BMP_temperature;BMP_pressure;BME280_temperature;BME280_humidity;BME280_pressure;Samples;Min_cycle;Max_cycle;Signal;HPM_P1;HPM_P2
2021/12/13 00:01:58;;;;;;;13.05;5.03;;;10.20;99.90;;;;;;4178537;28;20116;-81
2021/12/13 00:04:06;;;;;;;14.32;5.13;;;10.20;99.90;;;;;;4162766;28;20080;-81
2021/12/13 00:06:11;;;;;;;16.50;5.35;;;10.20;99.90;;;;;;4146048;28;20045;-81
2021/12/13 00:08:20;;;;;;;12.82;4.93;;;10.20;99.90;;;;;;4180031;28;20044;-81
2021/12/13 00:10:23;;;;;;;10.23;4.55;;;10.20;99.90;;;;;;4162392;28;20061;-81
2021/12/13 00:12:29;;;;;;;10.63;4.50;;;10.50;99.90;;;;;;4162488;28;20088;-81
2021/12/13 00:14:53;;;;;;;8.27;3.55;;;11.00;99.90;;;;;;4162073;28;20132;-81
2021/12/13 00:17:01;;;;;;;8.05;4.00;;;10.20;99.90;;;;;;4144338;28;20062;-81
2021/12/13 00:19:08;;;;;;;9.73;4.50;;;10.20;99.90;;;;;;4160694;28;20041;-81
2021/12/13 00:21:14;;;;;;;8.10;4.68;;;10.20;99.90;;;;;;4161406;28;20510;-81
2021/12/13 00:23:23;;;;;;;13.50;5.15;;;10.50;99.90;;;;;;4157304;28;20050;-81
2021/12/13 00:25:26;;;;;;;10.75;3.90;;;10.30;99.90;;;;;;4161951;28;20503;-81
2021/12/13 00:27:29;;;;;;;10.80;4.68;;;10.20;99.90;;;;;;4180019;28;20533;-81
2021/12/13 00:29:55;;;;;;;8.82;4.43;;;10.30;99.90;;;;;;4148330;28;20638;-81
2021/12/13 00:32:18;;;;;;;9.68;4.47;;;10.20;99.90;;;;;;4163423;28;20512;-81
2021/12/13 00:34:22;;;;;;;12.07;4.30;;;10.20;99.90;;;;;;4162214;28;20054;-81
2021/12/13 00:36:35;;;;;;;11.02;3.97;;;10.20;99.90;;;;;;4152753;28;20068;-80
2021/12/13 00:38:47;;;;;;;10.52;4.03;;;10.20;99.90;;;;;;4145131;28;20058;-81
2021/12/13 00:40:54;;;;;;;11.52;4.97;;;10.20;99.90;;;;;;4153798;28;20486;-81
2021/12/13 00:43:04;;;;;;;13.32;5.00;;;10.20;99.90;;;;;;4161859;28;20053;-81
2021/12/13 00:45:10;;;;;;;15.15;4.60;;;10.20;99.90;;;;;;4161725;28;20493;-81
2021/12/13 00:47:17;;;;;;;11.27;4.82;;;10.30;99.90;;;;;;4161940;28;20061;-81
2021/12/13 00:49:22;;;;;;;11.68;5.22;;;10.30;99.90;;;;;;4162226;28;20060;-81
2021/12/13 00:51:33;;;;;;;15.25;5.03;;;10.30;99.90;;;;;;4162080;28;20045;-81
2021/12/13 00:53:37;;;;;;;12.52;5.07;;;10.30;99.90;;;;;;4178759;28;20084;-81
2021/12/13 00:55:39;;;;;;;10.93;4.75;;;10.30;99.90;;;;;;4177882;28;20047;-81
2021/12/13 00:57:45;;;;;;;11.85;5.60;;;10.30;99.90;;;;;;4179620;28;20155;-81
2021/12/13 00:59:57;;;;;;;13.90;5.75;;;10.30;99.90;;;;;;4161803;28;20057;-81
2021/12/13 01:02:07;;;;;;;17.45;5.22;;;10.20;99.90;;;;;;4162543;28;20052;-81
2021/12/13 01:04:14;;;;;;;19.42;5.53;;;10.20;99.90;;;;;;4162108;28;20045;-81
2021/12/13 01:06:53;;;;;;;15.02;4.85;;;10.20;99.90;;;;;;4162166;28;20501;-81
2021/12/13 01:09:27;;;;;;;19.85;6.05;;;10.30;99.90;;;;;;4139549;28;20064;-80
2021/12/13 01:11:36;;;;;;;18.40;5.30;;;10.30;99.90;;;;;;4161886;28;20053;-81
2021/12/13 01:13:54;;;;;;;20.55;5.95;;;10.30;99.90;;;;;;4178019;28;20115;-81
2021/12/13 01:16:36;;;;;;;17.15;6.00;;;10.30;99.90;;;;;;4161946;28;20497;-80
2021/12/13 01:19:25;;;;;;;20.85;5.28;;;10.20;99.90;;;;;;4161938;28;20081;-80
2021/12/13 01:21:37;;;;;;;13.50;5.93;;;10.30;99.90;;;;;;4178964;28;20056;-81
2021/12/13 01:23:47;;;;;;;14.35;5.80;;;10.20;99.90;;;;;;4179775;28;20112;-80
2021/12/13 01:28:22;;;;;;;16.20;6.03;;;10.30;99.90;;;;;;4152283;28;20045;-81
2021/12/13 01:30:30;;;;;;;18.00;5.90;;;10.20;99.90;;;;;;4163714;28;20050;-81
2021/12/13 01:32:41;;;;;;;14.50;5.45;;;10.20;99.90;;;;;;4164717;28;20081;-80
2021/12/13 01:34:45;;;;;;;14.98;5.55;;;10.40;99.90;;;;;;4182813;28;20048;-80
2021/12/13 01:37:08;;;;;;;16.70;5.53;;;10.20;99.90;;;;;;4182392;28;20040;-80
2021/12/13 01:39:15;;;;;;;14.30;4.90;;;10.20;99.90;;;;;;4182765;28;20045;-81
2021/12/13 01:41:37;;;;;;;16.00;5.38;;;10.20;99.90;;;;;;4153023;28;20045;-80
2021/12/13 01:43:48;;;;;;;16.92;4.60;;;10.20;99.90;;;;;;4148664;28;20115;-81
2021/12/13 01:45:51;;;;;;;14.38;5.45;;;10.20;99.90;;;;;;4166089;28;20524;-81
2021/12/13 01:47:53;;;;;;;16.48;4.72;;;10.20;99.90;;;;;;4151629;28;20525;-80
2021/12/13 01:50:07;;;;;;;10.20;4.45;;;10.20;99.90;;;;;;4182841;28;20529;-81
2021/12/13 01:52:38;;;;;;;14.20;5.40;;;10.20;99.90;;;;;;4182461;28;20083;-81
2021/12/13 01:54:42;;;;;;;13.55;4.70;;;10.30;99.90;;;;;;4165336;28;20524;-80
2021/12/13 01:57:40;;;;;;;12.15;4.75;;;10.20;99.90;;;;;;4165281;28;20056;-80
2021/12/13 01:59:44;;;;;;;13.30;4.28;;;10.20;99.90;;;;;;4171844;28;20056;-80
2021/12/13 02:01:45;;;;;;;9.05;4.55;;;10.30;99.90;;;;;;4164646;28;20049;-80
2021/12/13 02:03:57;;;;;;;11.32;4.95;;;10.30;99.90;;;;;;4164221;28;20052;-81
2021/12/13 02:05:57;;;;;;;16.70;4.55;;;10.30;99.90;;;;;;4163402;28;20056;-80
2021/12/13 02:08:14;;;;;;;11.32;4.95;;;10.20;99.90;;;;;;4164823;28;20121;-81
2021/12/13 02:10:33;;;;;;;17.55;5.57;;;10.30;99.90;;;;;;4164758;28;20484;-81
2021/12/13 02:12:36;;;;;;;15.93;4.95;;;10.30;99.90;;;;;;4148279;28;20592;-80
2021/12/13 02:16:55;;;;;;;12.55;6.00;;;10.30;99.90;;;;;;4182541;28;20048;-81
2021/12/13 02:17:14;;;;;;;12.27;4.53;;;10.30;99.90;;;;;;4158756;28;20050;-80
2021/12/13 02:19:21;;;;;;;12.05;5.50;;;10.30;99.90;;;;;;4182515;28;20037;-80
2021/12/13 02:21:30;;;;;;;14.48;5.40;;;10.40;99.90;;;;;;4182353;28;20076;-80
2021/12/13 02:23:38;;;;;;;18.45;5.43;;;10.30;99.90;;;;;;4180670;28;20045;-80
2021/12/13 02:25:48;;;;;;;10.65;4.85;;;10.70;99.90;;;;;;4171637;28;20041;-80
2021/12/13 02:28:14;;;;;;;13.90;5.20;;;10.40;99.90;;;;;;4164359;28;20150;-81
2021/12/13 02:30:45;;;;;;;15.30;5.80;;;10.30;99.90;;;;;;4147318;28;20045;-81
2021/12/13 02:32:47;;;;;;;15.48;6.72;;;10.30;99.90;;;;;;4159531;28;20053;-80
2021/12/13 02:34:48;;;;;;;17.48;6.60;;;10.30;99.90;;;;;;4181873;28;20129;-81
2021/12/13 02:36:52;;;;;;;21.63;7.80;;;10.30;99.90;;;;;;4181766;28;20049;-80
2021/12/13 02:38:56;;;;;;;15.65;6.25;;;10.40;99.90;;;;;;4181378;28;20095;-80
2021/12/13 02:40:58;;;;;;;17.05;6.10;;;10.30;99.90;;;;;;4181323;28;20037;-80
2021/12/13 02:42:59;;;;;;;19.83;6.03;;;10.30;99.90;;;;;;4163114;28;20052;-80
2021/12/13 02:45:13;;;;;;;16.55;5.85;;;10.30;99.90;;;;;;4163619;28;20089;-80
2021/12/13 02:47:29;;;;;;;17.15;6.15;;;10.30;99.90;;;;;;4181334;28;20124;-79
2021/12/13 02:49:32;;;;;;;19.70;5.88;;;10.30;99.90;;;;;;4166021;28;20095;-79
2021/12/13 02:51:53;;;;;;;22.55;6.18;;;10.30;99.90;;;;;;4183257;28;20159;-79
2021/12/13 02:54:00;;;;;;;17.75;6.10;;;10.30;99.90;;;;;;4183339;28;20505;-79
2021/12/13 02:56:01;;;;;;;22.25;6.28;;;10.30;99.90;;;;;;4182474;28;20044;-79
2021/12/13 02:58:06;;;;;;;23.05;6.70;;;10.30;99.90;;;;;;4180569;28;20179;-79
2021/12/13 03:00:13;;;;;;;18.60;6.10;;;10.30;99.90;;;;;;4148297;28;20046;-79
2021/12/13 03:02:30;;;;;;;19.15;7.13;;;10.30;99.90;;;;;;4181099;28;20127;-79
2021/12/13 03:04:31;;;;;;;16.63;7.38;;;10.30;99.90;;;;;;4163723;28;20092;-80
2021/12/13 03:06:40;;;;;;;15.65;6.05;;;10.40;99.90;;;;;;4181795;28;20044;-80
2021/12/13 03:08:45;;;;;;;23.40;6.63;;;10.20;99.90;;;;;;4181319;28;20075;-80
2021/12/13 03:10:51;;;;;;;23.27;7.38;;;10.30;99.90;;;;;;4163508;28;20076;-81
2021/12/13 03:12:52;;;;;;;21.42;6.30;;;10.40;99.90;;;;;;4163439;28;20048;-80
2021/12/13 03:15:00;;;;;;;23.63;7.15;;;10.20;99.90;;;;;;4147283;28;20042;-80
2021/12/13 03:17:08;;;;;;;24.85;6.43;;;10.90;99.90;;;;;;4180963;28;20135;-80
2021/12/13 03:19:21;;;;;;;26.50;7.00;;;10.20;99.90;;;;;;4161900;28;20049;-80
2021/12/13 03:21:40;;;;;;;20.77;6.05;;;10.60;99.90;;;;;;4159310;28;20097;-81
2021/12/13 03:23:48;;;;;;;;;;;10.20;99.90;;;;;;4163051;28;20045;-81
2021/12/13 03:26:08;;;;;;;18.85;5.80;;;10.20;99.90;;;;;;4181425;28;20402;-81
2021/12/13 03:28:27;;;;;;;;;;;10.20;99.90;;;;;;4181547;28;20048;-81
2021/12/13 03:30:30;;;;;;;;;;;10.20;99.90;;;;;;4163788;28;19921;-81
2021/12/13 03:32:59;;;;;;;24.23;5.90;;;10.10;99.90;;;;;;4146429;28;19921;-81
2021/12/13 03:35:09;;;;;;;22.67;6.05;;;10.20;99.90;;;;;;4142733;28;20668;-81
2021/12/13 03:37:19;;;;;;;21.38;5.55;;;10.20;99.90;;;;;;4145443;28;20093;-82
2021/12/13 03:39:32;;;;;;;21.38;5.70;;;10.20;99.90;;;;;;4163479;28;20124;-81
2021/12/13 03:41:37;;;;;;;17.63;5.72;;;10.10;99.90;;;;;;4163027;28;20124;-80
2021/12/13 03:44:00;;;;;;;20.50;5.60;;;10.20;99.90;;;;;;4163173;28;20109;-80
2021/12/13 03:46:03;;;;;;;14.57;4.70;;;10.20;99.90;;;;;;4162797;28;20406;-80
2021/12/13 03:48:08;;;;;;;12.25;4.47;;;10.10;99.90;;;;;;4163521;28;20060;-80
2021/12/13 03:50:12;;;;;;;23.75;5.55;;;10.20;99.90;;;;;;4163037;28;20183;-81
2021/12/13 03:52:17;;;;;;;19.08;5.60;;;10.10;99.90;;;;;;4179758;28;20159;-82
2021/12/13 03:54:18;;;;;;;19.13;5.35;;;10.10;99.90;;;;;;4157380;28;20429;-81
2021/12/13 03:56:23;;;;;;;16.30;5.13;;;10.20;99.90;;;;;;4146964;28;20514;-81
2021/12/13 03:58:24;;;;;;;21.25;5.28;;;10.10;99.90;;;;;;4169052;28;20045;-81
2021/12/13 04:00:31;;;;;;;23.98;5.57;;;10.10;99.90;;;;;;4180597;28;20416;-81
2021/12/13 04:02:36;;;;;;;25.30;6.30;;;10.10;99.90;;;;;;4146935;28;20046;-81
2021/12/13 04:04:48;;;;;;;15.75;5.90;;;10.10;99.90;;;;;;4180935;28;20051;-81
2021/12/13 04:06:53;;;;;;;21.38;5.15;;;10.10;99.90;;;;;;4180048;28;20421;-81
2021/12/13 04:08:57;;;;;;;18.00;5.40;;;10.10;99.90;;;;;;4163069;28;20091;-81
2021/12/13 04:11:06;;;;;;;13.50;5.10;;;10.10;99.90;;;;;;4169693;28;20045;-81
2021/12/13 04:13:13;;;;;;;17.03;5.83;;;10.20;99.90;;;;;;4153990;28;20418;-81
2021/12/13 04:15:30;;;;;;;16.85;5.10;;;10.10;99.90;;;;;;4145853;28;20384;-81
2021/12/13 04:17:43;;;;;;;17.33;5.32;;;10.10;99.90;;;;;;4159138;28;20060;-81
2021/12/13 04:19:55;;;;;;;15.20;4.63;;;10.00;99.90;;;;;;4162592;28;20053;-81
2021/12/13 04:21:59;;;;;;;8.95;3.60;;;10.10;99.90;;;;;;4161635;28;20120;-81
2021/12/13 04:24:03;;;;;;;10.70;3.97;;;10.10;99.90;;;;;;4163461;28;20564;-81
2021/12/13 04:26:08;;;;;;;16.58;3.75;;;10.00;99.90;;;;;;4163328;28;20088;-82
2021/12/13 04:28:20;;;;;;;20.02;4.07;;;10.20;99.90;;;;;;4147681;28;20045;-81
2021/12/13 04:30:28;;;;;;;14.80;3.83;;;10.00;99.90;;;;;;4179222;28;20135;-81
2021/12/13 04:32:36;;;;;;;11.30;3.47;;;10.00;99.90;;;;;;4179621;28;20080;-81
2021/12/13 04:34:42;;;;;;;7.80;3.47;;;10.00;99.90;;;;;;4179689;28;20076;-82
2021/12/13 04:36:46;;;;;;;17.23;2.90;;;10.10;99.90;;;;;;4161903;28;20057;-81
2021/12/13 04:39:00;;;;;;;13.13;3.05;;;10.40;99.90;;;;;;4162043;28;20136;-82
2021/12/13 04:41:02;;;;;;;9.18;2.83;;;10.00;99.90;;;;;;4161987;28;20103;-81
2021/12/13 04:43:15;;;;;;;9.30;2.67;;;10.00;99.90;;;;;;4179734;28;20088;-81
2021/12/13 04:45:20;;;;;;;6.93;2.78;;;10.00;99.90;;;;;;4159960;28;20049;-80
2021/12/13 04:47:35;;;;;;;10.13;3.00;;;10.00;99.90;;;;;;4161983;28;20120;-81
2021/12/13 04:49:40;;;;;;;7.30;2.55;;;10.00;99.90;;;;;;4179755;28;20465;-80
2021/12/13 04:51:45;;;;;;;9.07;2.40;;;10.30;99.90;;;;;;4162120;28;20037;-81
2021/12/13 04:53:49;;;;;;;6.25;2.35;;;10.00;99.90;;;;;;4145567;28;20505;-81
2021/12/13 04:55:52;;;;;;;6.20;2.45;;;10.00;99.90;;;;;;4163252;28;20056;-81
2021/12/13 04:57:55;;;;;;;7.80;2.60;;;10.40;99.90;;;;;;4145823;28;20104;-80
2021/12/13 05:00:00;;;;;;;7.25;2.35;;;10.00;99.90;;;;;;4161910;28;20092;-80
2021/12/13 05:02:06;;;;;;;9.20;2.20;;;10.20;99.90;;;;;;4178099;28;20501;-80
2021/12/13 05:04:08;;;;;;;13.13;2.20;;;10.30;99.90;;;;;;4148268;28;20506;-80
2021/12/13 05:06:14;;;;;;;5.10;1.83;;;10.20;99.90;;;;;;4165212;28;20544;-80
2021/12/13 05:08:16;;;;;;;6.95;1.92;;;10.00;99.90;;;;;;4163920;28;20049;-81
2021/12/13 05:10:19;;;;;;;4.70;1.80;;;10.30;99.90;;;;;;4165542;28;20049;-81
2021/12/13 05:12:22;;;;;;;8.55;1.92;;;10.00;99.90;;;;;;4148937;28;20061;-80
2021/12/13 05:14:28;;;;;;;10.40;1.65;;;9.70;99.90;;;;;;4165672;28;20508;-80
2021/12/13 05:16:50;;;;;;;11.77;2.33;;;10.00;99.90;;;;;;4183217;28;20124;-81
2021/12/13 05:18:54;;;;;;;1.98;1.15;;;10.00;99.90;;;;;;4183150;28;20045;-81
2021/12/13 05:21:09;;;;;;;3.30;1.70;;;9.20;99.90;;;;;;4163707;28;20045;-81
2021/12/13 05:23:19;;;;;;;9.13;1.90;;;10.10;99.90;;;;;;4165671;28;20071;-81
2021/12/13 05:25:40;;;;;;;4.13;1.50;;;10.00;99.90;;;;;;4165669;28;20068;-81
2021/12/13 05:27:40;;;;;;;6.38;1.67;;;10.00;99.90;;;;;;4182460;28;20121;-81
2021/12/13 05:29:45;;;;;;;7.55;1.73;;;10.00;99.90;;;;;;4165051;28;20426;-81
2021/12/13 05:31:54;;;;;;;3.08;1.48;;;10.00;99.90;;;;;;4165404;28;20175;-81
2021/12/13 05:33:59;;;;;;;10.02;2.40;;;9.90;99.90;;;;;;4182677;28;20049;-81
2021/12/13 05:36:05;;;;;;;7.05;1.50;;;10.10;99.90;;;;;;4165154;28;20079;-82
2021/12/13 05:38:11;;;;;;;3.78;2.00;;;9.90;99.90;;;;;;4183373;28;20119;-81
2021/12/13 05:40:31;;;;;;;6.55;1.95;;;9.90;99.90;;;;;;4156179;28;20148;-81
2021/12/13 05:42:43;;;;;;;4.45;1.70;;;9.90;99.90;;;;;;4167465;28;20499;-81
2021/12/13 05:44:45;;;;;;;3.88;1.65;;;9.90;99.90;;;;;;4180301;28;20044;-80
2021/12/13 05:46:50;;;;;;;4.97;1.70;;;10.00;99.90;;;;;;4183927;28;20067;-81
2021/12/13 05:48:52;;;;;;;4.22;1.70;;;10.30;99.90;;;;;;4183560;28;20047;-81
2021/12/13 05:51:02;;;;;;;5.97;1.90;;;9.90;99.90;;;;;;4183400;28;20033;-82
2021/12/13 05:53:09;;;;;;;8.50;1.70;;;9.90;99.90;;;;;;4171933;28;20053;-81
2021/12/13 05:55:12;;;;;;;5.97;2.42;;;9.90;99.90;;;;;;4163579;28;20557;-81
2021/12/13 05:57:34;;;;;;;3.40;1.60;;;9.80;99.90;;;;;;4144974;28;20050;-81
2021/12/13 05:59:59;;;;;;;3.90;1.60;;;9.90;99.90;;;;;;4163058;28;20052;-81
2021/12/13 06:02:17;;;;;;;3.83;1.60;;;9.90;99.90;;;;;;4140863;28;20565;-80
2021/12/13 06:04:37;;;;;;;5.90;1.58;;;9.90;99.90;;;;;;4164745;28;20048;-81
2021/12/13 06:06:52;;;;;;;6.03;2.25;;;9.90;99.90;;;;;;4181556;28;20549;-81
2021/12/13 06:08:56;;;;;;;4.88;1.92;;;9.90;99.90;;;;;;4182152;28;20124;-81
2021/12/13 06:11:06;;;;;;;5.90;2.00;;;9.80;99.90;;;;;;4181710;28;20112;-81
2021/12/13 06:13:11;;;;;;;2.47;1.77;;;9.90;99.90;;;;;;4181775;28;20053;-81
2021/12/13 06:15:15;;;;;;;5.50;1.77;;;9.80;99.90;;;;;;4180019;28;20049;-81
2021/12/13 06:17:37;;;;;;;4.35;2.03;;;10.10;99.90;;;;;;4181772;28;20045;-81
2021/12/13 06:19:53;;;;;;;6.93;2.35;;;9.80;99.90;;;;;;4157418;28;20112;-81
2021/12/13 06:22:05;;;;;;;3.92;2.05;;;9.80;99.90;;;;;;4165981;28;20088;-81
2021/12/13 06:24:06;;;;;;;4.20;2.08;;;9.80;99.90;;;;;;4181576;28;20511;-81
2021/12/13 06:26:12;;;;;;;4.13;2.13;;;9.80;99.90;;;;;;4181155;28;20052;-81
2021/12/13 06:28:20;;;;;;;5.07;2.33;;;9.90;99.90;;;;;;4164354;28;20498;-81
2021/12/13 06:30:23;;;;;;;7.03;2.50;;;9.80;99.90;;;;;;4147897;28;20474;-81
2021/12/13 06:32:31;;;;;;;9.10;2.67;;;9.80;99.90;;;;;;4164224;28;20059;-81
2021/12/13 06:34:32;;;;;;;7.93;2.25;;;9.80;99.90;;;;;;4164350;28;22055;-82
2021/12/13 06:36:53;;;;;;;7.05;2.85;;;9.90;99.90;;;;;;4158672;28;20083;-82
2021/12/13 06:39:15;;;;;;;6.65;2.40;;;9.80;99.90;;;;;;4164629;28;20076;-81
2021/12/13 06:41:37;;;;;;;7.43;2.92;;;9.80;99.90;;;;;;4159489;28;20050;-81
2021/12/13 06:43:43;;;;;;;5.85;2.45;;;10.00;99.90;;;;;;4150675;28;20057;-81
2021/12/13 06:45:44;;;;;;;7.03;2.60;;;9.80;99.90;;;;;;4165186;28;20045;-81
2021/12/13 06:47:51;;;;;;;8.88;2.70;;;9.80;99.90;;;;;;4181253;28;20144;-81
2021/12/13 06:49:53;;;;;;;5.20;2.53;;;9.80;99.90;;;;;;4163943;28;20551;-81
2021/12/13 06:52:08;;;;;;;9.15;2.58;;;9.90;99.90;;;;;;4164003;28;20567;-81
2021/12/13 06:54:24;;;;;;;7.75;2.90;;;9.80;99.90;;;;;;4180906;28;20118;-81
2021/12/13 06:56:29;;;;;;;6.55;2.60;;;9.80;99.90;;;;;;4163917;28;20081;-81
2021/12/13 06:58:30;;;;;;;10.75;3.15;;;9.80;99.90;;;;;;4181536;28;20080;-81
2021/12/13 07:00:35;;;;;;;12.45;2.95;;;9.80;99.90;;;;;;4182121;28;20041;-81
2021/12/13 07:02:36;;;;;;;4.95;2.80;;;10.10;99.90;;;;;;4175034;28;20080;-81
2021/12/13 07:04:50;;;;;;;7.03;2.85;;;9.80;99.90;;;;;;4146334;28;20410;-82
2021/12/13 07:06:51;;;;;;;7.78;2.55;;;9.80;99.90;;;;;;4146966;28;20060;-81
2021/12/13 07:09:19;;;;;;;6.07;3.42;;;10.20;99.90;;;;;;4171106;28;20045;-81
2021/12/13 07:11:21;;;;;;;7.82;2.90;;;9.80;99.90;;;;;;4161785;28;20045;-81
2021/12/13 07:13:43;;;;;;;6.35;3.03;;;9.80;99.90;;;;;;4151442;28;20053;-81
2021/12/13 07:15:45;;;;;;;6.78;2.90;;;9.70;99.90;;;;;;4160177;28;20080;-80
2021/12/13 07:18:29;;;;;;;6.72;2.72;;;9.70;99.90;;;;;;4158667;28;20045;-80
2021/12/13 07:20:45;;;;;;;11.35;3.28;;;9.80;99.90;;;;;;4154992;28;20128;-80
2021/12/13 07:22:56;;;;;;;5.75;3.03;;;9.70;99.90;;;;;;4181343;28;20079;-81
2021/12/13 07:25:16;;;;;;;10.90;3.20;;;9.70;99.90;;;;;;4181638;28;20053;-80
2021/12/13 07:27:27;;;;;;;9.50;2.83;;;9.70;99.90;;;;;;4163962;28;20077;-80
2021/12/13 07:29:36;;;;;;;10.80;3.55;;;9.90;99.90;;;;;;4163778;28;20079;-80
2021/12/13 07:31:39;;;;;;;7.75;2.88;;;9.70;99.90;;;;;;4164106;28;20076;-80
2021/12/13 07:33:43;;;;;;;9.07;3.80;;;9.70;99.90;;;;;;4180665;28;20220;-81
2021/12/13 07:35:49;;;;;;;6.78;3.05;;;9.70;99.90;;;;;;4162903;28;20041;-81
2021/12/13 07:38:21;;;;;;;8.02;3.08;;;9.70;99.90;;;;;;4173837;28;20155;-81
2021/12/13 07:40:44;;;;;;;10.90;3.63;;;9.70;99.90;;;;;;4178913;28;20059;-81
2021/12/13 07:43:05;;;;;;;11.07;3.53;;;9.70;99.90;;;;;;4147190;28;20132;-81
2021/12/13 07:45:30;;;;;;;10.82;3.78;;;9.70;99.90;;;;;;4145607;28;20038;-81
2021/12/13 07:47:34;;;;;;;7.60;3.58;;;9.70;99.90;;;;;;4150903;28;20049;-80
2021/12/13 07:49:40;;;;;;;10.60;3.90;;;9.70;99.90;;;;;;4152887;28;20113;-79
2021/12/13 07:51:48;;;;;;;10.80;3.72;;;9.70;99.90;;;;;;4147710;28;20127;-80
2021/12/13 07:53:57;;;;;;;7.57;3.20;;;9.70;99.90;;;;;;4160364;28;20501;-80
2021/12/13 07:55:59;;;;;;;8.20;4.03;;;9.70;99.90;;;;;;4150155;28;20069;-84
2021/12/13 07:58:04;;;;;;;13.38;3.83;;;9.70;99.90;;;;;;4151103;28;20067;-81
2021/12/13 08:00:21;;;;;;;11.60;3.25;;;9.70;99.90;;;;;;4162165;28;20053;-80
2021/12/13 08:02:25;;;;;;;10.18;3.78;;;9.60;99.90;;;;;;4148600;28;20113;-80
2021/12/13 08:04:46;;;;;;;10.25;4.47;;;9.60;99.90;;;;;;4151969;28;20045;-80
2021/12/13 08:06:54;;;;;;;11.65;4.40;;;9.70;99.90;;;;;;4148013;28;20101;-80
2021/12/13 08:08:59;;;;;;;10.88;4.15;;;9.70;99.90;;;;;;4147590;28;20050;-80
2021/12/13 08:11:01;;;;;;;9.15;4.72;;;9.70;99.90;;;;;;4157426;28;20493;-81
2021/12/13 08:13:05;;;;;;;8.98;4.13;;;9.70;99.90;;;;;;4159859;28;20053;-81
2021/12/13 08:15:20;;;;;;;10.48;4.30;;;9.60;99.90;;;;;;4162112;28;20132;-81
2021/12/13 08:17:29;;;;;;;9.60;4.60;;;9.90;99.90;;;;;;4177527;28;20041;-81
2021/12/13 08:19:33;;;;;;;15.20;4.78;;;9.70;99.90;;;;;;4179647;28;20053;-81
2021/12/13 08:21:39;;;;;;;10.93;4.82;;;9.70;99.90;;;;;;4162820;28;20092;-81
2021/12/13 08:23:47;;;;;;;11.70;4.93;;;9.70;99.90;;;;;;4172320;28;20083;-81
2021/12/13 08:25:51;;;;;;;10.82;4.70;;;9.70;99.90;;;;;;4179316;28;20501;-82
2021/12/13 08:28:00;;;;;;;10.73;5.22;;;9.70;99.90;;;;;;4180250;28;20373;-81
2021/12/13 08:30:20;;;;;;;11.77;4.55;;;9.70;99.90;;;;;;4159695;28;20056;-81
2021/12/13 08:32:25;;;;;;;12.00;5.43;;;9.70;99.90;;;;;;4146711;28;20460;-82
2021/12/13 08:34:29;;;;;;;10.10;4.10;;;9.80;99.90;;;;;;4174449;28;21704;-81
2021/12/13 08:36:41;;;;;;;12.10;5.00;;;9.90;99.90;;;;;;4174812;28;20091;-81
2021/12/13 08:38:59;;;;;;;12.52;4.25;;;9.80;99.90;;;;;;4139398;28;20090;-81
2021/12/13 08:41:36;;;;;;;14.88;5.18;;;9.70;99.90;;;;;;4159136;28;20563;-82
2021/12/13 08:43:44;;;;;;;12.52;5.20;;;9.80;99.90;;;;;;4158901;28;21771;-81
2021/12/13 08:45:55;;;;;;;12.85;5.38;;;9.80;99.90;;;;;;4145186;28;20052;-82
2021/12/13 08:48:01;;;;;;;12.43;5.15;;;9.80;99.90;;;;;;4162129;28;20051;-81
2021/12/13 08:50:16;;;;;;;17.95;5.18;;;9.80;99.90;;;;;;4152069;28;20045;-81
2021/12/13 08:52:28;;;;;;;13.85;5.65;;;9.80;99.90;;;;;;4152544;28;20819;-81
2021/12/13 08:54:47;;;;;;;12.57;5.53;;;9.80;99.90;;;;;;4180464;28;20420;-82
2021/12/13 08:56:51;;;;;;;12.30;6.63;;;9.80;99.90;;;;;;4156067;28;20469;-80
2021/12/13 08:59:10;;;;;;;15.18;5.70;;;9.80;99.90;;;;;;4151855;28;20077;-81
2021/12/13 09:01:13;;;;;;;13.73;5.45;;;9.50;99.90;;;;;;4178626;28;20033;-80
2021/12/13 09:03:38;;;;;;;15.50;6.60;;;9.80;99.90;;;;;;4163269;28;20048;-80
2021/12/13 09:05:56;;;;;;;10.63;5.28;;;9.90;99.90;;;;;;4167084;28;20164;-82
2021/12/13 09:07:57;;;;;;;13.48;5.60;;;9.90;99.90;;;;;;4170557;28;20072;-82
2021/12/13 09:09:58;;;;;;;17.52;6.55;;;9.90;99.90;;;;;;4162456;28;20092;-82
2021/12/13 09:12:07;;;;;;;12.98;5.63;;;9.90;99.90;;;;;;4180130;28;20037;-81
2021/12/13 09:14:10;;;;;;;10.50;5.47;;;9.90;99.90;;;;;;4161960;28;20037;-82
2021/12/13 09:16:17;;;;;;;15.73;6.28;;;9.90;99.90;;;;;;4145923;28;20501;-82
2021/12/13 09:18:21;;;;;;;15.75;6.75;;;9.90;99.90;;;;;;4169227;28;20557;-81
2021/12/13 09:20:38;;;;;;;13.48;5.65;;;9.90;99.90;;;;;;4161934;28;20087;-81
2021/12/13 09:22:52;;;;;;;12.57;5.55;;;9.90;99.90;;;;;;4136931;28;20130;-82
2021/12/13 09:25:00;;;;;;;12.48;5.95;;;10.00;99.90;;;;;;4155556;28;20080;-83
2021/12/13 09:27:16;;;;;;;14.50;5.50;;;9.90;99.90;;;;;;4161851;28;20084;-82
2021/12/13 09:29:18;;;;;;;12.07;5.82;;;10.00;99.90;;;;;;4145054;28;20103;-82
2021/12/13 09:31:29;;;;;;;16.77;5.93;;;10.00;99.90;;;;;;4161608;28;20050;-82
2021/12/13 09:33:29;;;;;;;14.15;6.15;;;10.00;99.90;;;;;;4134102;28;20102;-80
2021/12/13 09:35:46;;;;;;;12.02;5.72;;;9.90;99.90;;;;;;4176591;28;20053;-80
2021/12/13 09:37:47;;;;;;;12.70;6.68;;;10.00;99.90;;;;;;4164286;28;20469;-82
2021/12/13 09:39:59;;;;;;;11.43;6.10;;;10.20;99.90;;;;;;4165526;28;20111;-81
2021/12/13 09:42:06;;;;;;;11.88;5.45;;;10.20;99.90;;;;;;4147150;28;20088;-81
2021/12/13 09:44:10;;;;;;;12.32;5.90;;;10.00;99.90;;;;;;4146435;28;20045;-81
2021/12/13 09:46:15;;;;;;;12.82;5.65;;;10.40;99.90;;;;;;4149919;28;20095;-82
2021/12/13 09:48:29;;;;;;;9.73;5.65;;;10.20;99.90;;;;;;4163295;28;20343;-82
2021/12/13 09:50:31;;;;;;;14.00;5.55;;;10.40;99.90;;;;;;4165602;28;20092;-83
2021/12/13 09:52:42;;;;;;;11.95;6.20;;;10.10;99.90;;;;;;4183137;28;20057;-85
2021/12/13 09:54:49;;;;;;;12.98;5.78;;;10.10;99.90;;;;;;4183298;28;20077;-84
2021/12/13 09:56:51;;;;;;;13.45;5.90;;;10.00;99.90;;;;;;4183303;28;20145;-84
2021/12/13 09:59:02;;;;;;;11.68;6.43;;;10.10;99.90;;;;;;4183052;28;20055;-82
2021/12/13 10:01:25;;;;;;;9.43;5.25;;;10.10;99.90;;;;;;4148679;28;20596;-81
2021/12/13 10:03:43;;;;;;;10.98;5.20;;;10.10;99.90;;;;;;4158266;28;20046;-81
2021/12/13 10:05:51;;;;;;;11.00;5.85;;;10.10;99.90;;;;;;4165513;28;20525;-82
2021/12/13 10:07:56;;;;;;;11.10;5.15;;;10.10;99.90;;;;;;4183047;28;20049;-82
2021/12/13 10:10:04;;;;;;;18.02;5.97;;;10.20;99.90;;;;;;4165003;28;20146;-81
2021/12/13 10:12:10;;;;;;;13.85;4.95;;;10.20;99.90;;;;;;4148820;28;20061;-81
2021/12/13 10:14:13;;;;;;;12.68;5.50;;;10.20;99.90;;;;;;4182000;28;20120;-81
2021/12/13 10:16:19;;;;;;;13.07;5.43;;;10.20;99.90;;;;;;4179483;28;20044;-82
2021/12/13 10:18:25;;;;;;;9.95;4.93;;;10.20;99.90;;;;;;4148954;28;20591;-82
2021/12/13 10:20:34;;;;;;;15.07;6.15;;;10.40;99.90;;;;;;4161644;28;20540;-82
2021/12/13 10:22:35;;;;;;;12.45;5.88;;;10.50;99.90;;;;;;4149250;28;20054;-82
2021/12/13 10:24:50;;;;;;;9.25;5.28;;;10.10;99.90;;;;;;4148641;28;20056;-82
2021/12/13 10:26:54;;;;;;;11.75;5.07;;;10.10;99.90;;;;;;4165429;28;20049;-81
2021/12/13 10:28:56;;;;;;;10.63;5.40;;;10.10;99.90;;;;;;4174607;28;20048;-82
2021/12/13 10:31:15;;;;;;;17.58;6.07;;;10.10;99.90;;;;;;4182148;28;20084;-82
2021/12/13 10:33:19;;;;;;;10.65;5.55;;;10.10;99.90;;;;;;4147980;28;20141;-83
2021/12/13 10:35:28;;;;;;;12.70;5.45;;;10.20;99.90;;;;;;4169164;28;20053;-82
2021/12/13 10:37:39;;;;;;;;;;;10.20;99.90;;;;;;4149307;28;20518;-81
2021/12/13 10:39:45;;;;;;;11.50;4.88;;;10.20;99.90;;;;;;4149586;28;19921;-82
2021/12/13 10:41:50;;;;;;;10.00;5.60;;;10.20;99.90;;;;;;4164429;28;20085;-81
2021/12/13 10:43:56;;;;;;;15.27;5.63;;;10.20;99.90;;;;;;4183050;28;20057;-82
2021/12/13 10:46:10;;;;;;;10.43;5.13;;;10.30;99.90;;;;;;4183402;28;20049;-82
2021/12/13 10:48:15;;;;;;;10.95;5.43;;;10.30;99.90;;;;;;4165456;28;20041;-81
2021/12/13 10:50:25;;;;;;;9.30;5.53;;;10.30;99.90;;;;;;4164841;28;20058;-82
2021/12/13 10:52:34;;;;;;;10.57;4.88;;;10.30;99.90;;;;;;4164896;28;20095;-81
2021/12/13 10:54:40;;;;;;;11.07;5.25;;;10.30;99.90;;;;;;4182460;28;20053;-81
2021/12/13 10:56:47;;;;;;;12.43;5.07;;;10.30;99.90;;;;;;4165222;28;20108;-81
2021/12/13 10:58:51;;;;;;;8.93;5.25;;;10.40;99.90;;;;;;4180987;28;20369;-82
2021/12/13 11:01:05;;;;;;;9.40;5.18;;;10.30;99.90;;;;;;4163396;28;20509;-81
2021/12/13 11:03:11;;;;;;;9.35;4.68;;;10.30;99.90;;;;;;4131997;28;20046;-81
2021/12/13 11:05:18;;;;;;;9.68;4.38;;;10.40;99.90;;;;;;4147170;28;20571;-82
2021/12/13 11:07:20;;;;;;;11.02;4.72;;;10.20;99.90;;;;;;4174044;28;20087;-82
2021/12/13 11:09:24;;;;;;;10.15;5.25;;;10.30;99.90;;;;;;4163201;28;20611;-82
2021/12/13 11:11:32;;;;;;;12.80;5.13;;;10.30;99.90;;;;;;4181362;28;20757;-83
2021/12/13 11:13:36;;;;;;;9.55;5.20;;;10.30;99.90;;;;;;4181478;28;20044;-81
2021/12/13 11:15:40;;;;;;;9.00;4.80;;;10.30;99.90;;;;;;4163262;28;20434;-83
2021/12/13 11:17:41;;;;;;;9.75;5.38;;;10.30;99.90;;;;;;4180942;28;20051;-83